sensor_id;sensor_type;location;lat;lon;timestamp;temperature;humidity
21830;DHT22;11077;50.264;6.798;2022-08-11T00:01:11;20.60;70.80
21830;DHT22;11077;50.264;6.798;2022-08-11T00:03:45;20.70;70.90
21830;DHT22;11077;50.264;6.798;2022-08-11T00:06:14;20.60;70.80
21830;DHT22;11077;50.264;6.798;2022-08-11T00:08:49;20.60;70.90
21830;DHT22;11077;50.264;6.798;2022-08-11T00:11:17;20.50;71.10
21830;DHT22;11077;50.264;6.798;2022-08-11T00:13:48;20.50;71.20
21830;DHT22;11077;50.264;6.798;2022-08-11T00:16:19;20.50;71.40
21830;DHT22;11077;50.264;6.798;2022-08-11T00:18:51;20.50;71.50
21830;DHT22;11077;50.264;6.798;2022-08-11T00:21:19;20.40;71.50
21830;DHT22;11077;50.264;6.798;2022-08-11T00:23:53;20.40;71.70
21830;DHT22;11077;50.264;6.798;2022-08-11T00:26:21;20.40;71.80
21830;DHT22;11077;50.264;6.798;2022-08-11T00:28:49;20.40;71.90
21830;DHT22;11077;50.264;6.798;2022-08-11T00:31:25;20.40;72.00
21830;DHT22;11077;50.264;6.798;2022-08-11T00:33:54;20.40;71.90
21830;DHT22;11077;50.264;6.798;2022-08-11T00:36:26;20.30;72.20
21830;DHT22;11077;50.264;6.798;2022-08-11T00:38:55;20.20;72.70
21830;DHT22;11077;50.264;6.798;2022-08-11T00:41:32;20.10;73.00
21830;DHT22;11077;50.264;6.798;2022-08-11T00:44:13;19.90;73.50
21830;DHT22;11077;50.264;6.798;2022-08-11T00:46:54;19.80;73.60
21830;DHT22;11077;50.264;6.798;2022-08-11T00:49:34;19.70;74.00
21830;DHT22;11077;50.264;6.798;2022-08-11T00:52:12;19.60;73.90
21830;DHT22;11077;50.264;6.798;2022-08-11T00:58:25;19.40;74.50
21830;DHT22;11077;50.264;6.798;2022-08-11T01:01:08;19.30;74.70
21830;DHT22;11077;50.264;6.798;2022-08-11T01:04:10;19.30;74.70
21830;DHT22;11077;50.264;6.798;2022-08-11T01:06:56;19.20;75.20
21830;DHT22;11077;50.264;6.798;2022-08-11T01:09:48;19.00;75.70
21830;DHT22;11077;50.264;6.798;2022-08-11T01:12:28;18.90;76.00
21830;DHT22;11077;50.264;6.798;2022-08-11T01:15:26;18.90;75.70
21830;DHT22;11077;50.264;6.798;2022-08-11T01:21:35;18.70;76.70
21830;DHT22;11077;50.264;6.798;2022-08-11T01:27:40;18.50;77.30
21830;DHT22;11077;50.264;6.798;2022-08-11T01:30:34;18.50;76.80
21830;DHT22;11077;50.264;6.798;2022-08-11T01:33:53;18.40;78.20
21830;DHT22;11077;50.264;6.798;2022-08-11T01:43:00;18.10;79.20
21830;DHT22;11077;50.264;6.798;2022-08-11T01:45:51;17.90;79.00
21830;DHT22;11077;50.264;6.798;2022-08-11T01:48:33;17.90;79.40
21830;DHT22;11077;50.264;6.798;2022-08-11T01:51:12;17.70;78.80
21830;DHT22;11077;50.264;6.798;2022-08-11T01:53:53;17.70;79.90
21830;DHT22;11077;50.264;6.798;2022-08-11T01:56:39;17.60;79.90
21830;DHT22;11077;50.264;6.798;2022-08-11T01:59:16;17.60;80.30
21830;DHT22;11077;50.264;6.798;2022-08-11T02:04:54;17.40;80.30
21830;DHT22;11077;50.264;6.798;2022-08-11T02:07:30;17.40;80.80
21830;DHT22;11077;50.264;6.798;2022-08-11T02:10:11;17.30;80.80
21830;DHT22;11077;50.264;6.798;2022-08-11T02:12:57;17.20;80.90
21830;DHT22;11077;50.264;6.798;2022-08-11T02:15:29;17.20;80.60
21830;DHT22;11077;50.264;6.798;2022-08-11T02:18:05;17.10;81.20
21830;DHT22;11077;50.264;6.798;2022-08-11T02:20:42;17.00;81.30
21830;DHT22;11077;50.264;6.798;2022-08-11T02:23:34;16.90;83.30
21830;DHT22;11077;50.264;6.798;2022-08-11T02:26:13;16.90;82.50
21830;DHT22;11077;50.264;6.798;2022-08-11T02:28:50;16.80;83.10
21830;DHT22;11077;50.264;6.798;2022-08-11T02:31:37;16.80;83.80
21830;DHT22;11077;50.264;6.798;2022-08-11T02:34:31;16.60;83.40
21830;DHT22;11077;50.264;6.798;2022-08-11T02:37:11;16.60;84.10
21830;DHT22;11077;50.264;6.798;2022-08-11T02:39:47;16.60;84.10
21830;DHT22;11077;50.264;6.798;2022-08-11T02:42:27;16.50;85.30
21830;DHT22;11077;50.264;6.798;2022-08-11T02:45:10;16.30;84.80
21830;DHT22;11077;50.264;6.798;2022-08-11T02:47:45;16.30;84.50
21830;DHT22;11077;50.264;6.798;2022-08-11T02:50:38;16.30;85.10
21830;DHT22;11077;50.264;6.798;2022-08-11T02:53:11;16.20;84.90
21830;DHT22;11077;50.264;6.798;2022-08-11T02:55:51;16.20;85.50
21830;DHT22;11077;50.264;6.798;2022-08-11T02:58:33;16.10;86.20
21830;DHT22;11077;50.264;6.798;2022-08-11T03:01:10;16.10;85.40
21830;DHT22;11077;50.264;6.798;2022-08-11T03:03:47;16.10;85.10
21830;DHT22;11077;50.264;6.798;2022-08-11T03:06:28;16.10;85.40
21830;DHT22;11077;50.264;6.798;2022-08-11T03:09:03;16.00;85.30
21830;DHT22;11077;50.264;6.798;2022-08-11T03:11:49;16.00;86.20
21830;DHT22;11077;50.264;6.798;2022-08-11T03:14:42;15.90;85.40
21830;DHT22;11077;50.264;6.798;2022-08-11T03:17:39;15.90;85.90
21830;DHT22;11077;50.264;6.798;2022-08-11T03:20:27;15.80;86.70
21830;DHT22;11077;50.264;6.798;2022-08-11T03:23:02;15.70;86.20
21830;DHT22;11077;50.264;6.798;2022-08-11T03:25:46;15.70;86.50
21830;DHT22;11077;50.264;6.798;2022-08-11T03:28:26;15.70;86.90
21830;DHT22;11077;50.264;6.798;2022-08-11T03:31:10;15.60;87.20
21830;DHT22;11077;50.264;6.798;2022-08-11T03:33:47;15.50;86.50
21830;DHT22;11077;50.264;6.798;2022-08-11T03:39:37;15.40;88.00
21830;DHT22;11077;50.264;6.798;2022-08-11T03:42:15;15.40;89.00
21830;DHT22;11077;50.264;6.798;2022-08-11T03:44:54;15.30;88.50
21830;DHT22;11077;50.264;6.798;2022-08-11T03:47:51;15.30;89.00
21830;DHT22;11077;50.264;6.798;2022-08-11T03:50:49;15.30;90.20
21830;DHT22;11077;50.264;6.798;2022-08-11T03:53:22;15.30;89.70
21830;DHT22;11077;50.264;6.798;2022-08-11T03:56:16;15.20;89.20
21830;DHT22;11077;50.264;6.798;2022-08-11T03:59:10;15.20;88.90
21830;DHT22;11077;50.264;6.798;2022-08-11T04:02:06;15.10;89.80
21830;DHT22;11077;50.264;6.798;2022-08-11T04:05:08;15.10;90.00
21830;DHT22;11077;50.264;6.798;2022-08-11T04:08:12;15.10;90.10
21830;DHT22;11077;50.264;6.798;2022-08-11T04:20:21;14.90;89.90
21830;DHT22;11077;50.264;6.798;2022-08-11T04:23:06;14.90;90.20
21830;DHT22;11077;50.264;6.798;2022-08-11T04:26:07;14.80;90.30
21830;DHT22;11077;50.264;6.798;2022-08-11T04:29:02;14.70;90.60
21830;DHT22;11077;50.264;6.798;2022-08-11T04:31:36;14.60;90.50
21830;DHT22;11077;50.264;6.798;2022-08-11T04:34:23;14.60;91.00
21830;DHT22;11077;50.264;6.798;2022-08-11T04:40:39;14.40;91.60
21830;DHT22;11077;50.264;6.798;2022-08-11T04:43:39;14.40;91.50
21830;DHT22;11077;50.264;6.798;2022-08-11T04:49:24;14.40;91.80
21830;DHT22;11077;50.264;6.798;2022-08-11T04:56:06;14.40;92.70
21830;DHT22;11077;50.264;6.798;2022-08-11T04:59:14;14.30;92.40
21830;DHT22;11077;50.264;6.798;2022-08-11T05:05:22;14.30;93.20
21830;DHT22;11077;50.264;6.798;2022-08-11T05:11:35;14.30;93.70
21830;DHT22;11077;50.264;6.798;2022-08-11T05:14:29;14.30;93.70
21830;DHT22;11077;50.264;6.798;2022-08-11T05:17:31;14.30;93.60
21830;DHT22;11077;50.264;6.798;2022-08-11T05:20:19;14.40;93.80
21830;DHT22;11077;50.264;6.798;2022-08-11T05:23:05;14.30;93.80
21830;DHT22;11077;50.264;6.798;2022-08-11T05:25:54;14.40;93.90
21830;DHT22;11077;50.264;6.798;2022-08-11T05:28:49;14.40;94.10
21830;DHT22;11077;50.264;6.798;2022-08-11T05:31:37;14.50;94.30
21830;DHT22;11077;50.264;6.798;2022-08-11T05:34:25;14.50;94.10
21830;DHT22;11077;50.264;6.798;2022-08-11T05:37:14;14.50;94.10
21830;DHT22;11077;50.264;6.798;2022-08-11T05:39:48;14.60;94.20
21830;DHT22;11077;50.264;6.798;2022-08-11T05:42:35;14.60;94.40
21830;DHT22;11077;50.264;6.798;2022-08-11T05:45:23;14.60;94.40
21830;DHT22;11077;50.264;6.798;2022-08-11T05:48:09;14.60;94.70
21830;DHT22;11077;50.264;6.798;2022-08-11T05:50:56;14.60;94.80
21830;DHT22;11077;50.264;6.798;2022-08-11T05:53:51;14.70;94.70
21830;DHT22;11077;50.264;6.798;2022-08-11T05:56:42;14.70;94.60
21830;DHT22;11077;50.264;6.798;2022-08-11T05:59:16;14.80;94.70
21830;DHT22;11077;50.264;6.798;2022-08-11T06:01:45;14.80;94.80
21830;DHT22;11077;50.264;6.798;2022-08-11T06:04:17;14.80;94.60
21830;DHT22;11077;50.264;6.798;2022-08-11T06:06:50;14.90;94.80
21830;DHT22;11077;50.264;6.798;2022-08-11T06:09:30;15.00;95.00
21830;DHT22;11077;50.264;6.798;2022-08-11T06:12:00;15.00;95.30
21830;DHT22;11077;50.264;6.798;2022-08-11T06:14:29;15.10;95.00
21830;DHT22;11077;50.264;6.798;2022-08-11T06:17:02;15.20;94.70
21830;DHT22;11077;50.264;6.798;2022-08-11T06:19:33;15.30;94.60
21830;DHT22;11077;50.264;6.798;2022-08-11T06:22:02;15.40;94.60
21830;DHT22;11077;50.264;6.798;2022-08-11T06:24:30;15.60;94.40
21830;DHT22;11077;50.264;6.798;2022-08-11T06:26:59;15.70;94.30
21830;DHT22;11077;50.264;6.798;2022-08-11T06:29:27;15.80;94.40
21830;DHT22;11077;50.264;6.798;2022-08-11T06:31:58;16.00;94.40
21830;DHT22;11077;50.264;6.798;2022-08-11T06:34:40;16.20;93.70
21830;DHT22;11077;50.264;6.798;2022-08-11T06:37:20;16.40;93.80
21830;DHT22;11077;50.264;6.798;2022-08-11T06:39:58;16.60;93.00
21830;DHT22;11077;50.264;6.798;2022-08-11T06:42:49;16.80;93.00
21830;DHT22;11077;50.264;6.798;2022-08-11T06:45:30;17.00;92.60
21830;DHT22;11077;50.264;6.798;2022-08-11T06:48:01;17.20;92.50
21830;DHT22;11077;50.264;6.798;2022-08-11T06:50:32;17.50;92.70
21830;DHT22;11077;50.264;6.798;2022-08-11T06:53:18;17.70;92.40
21830;DHT22;11077;50.264;6.798;2022-08-11T06:55:47;18.10;92.20
21830;DHT22;11077;50.264;6.798;2022-08-11T06:58:48;18.50;91.50
21830;DHT22;11077;50.264;6.798;2022-08-11T07:01:39;18.90;89.60
21830;DHT22;11077;50.264;6.798;2022-08-11T07:04:19;19.30;87.20
21830;DHT22;11077;50.264;6.798;2022-08-11T07:06:57;19.60;86.80
21830;DHT22;11077;50.264;6.798;2022-08-11T07:13:02;20.30;83.90
21830;DHT22;11077;50.264;6.798;2022-08-11T07:15:47;20.60;83.80
21830;DHT22;11077;50.264;6.798;2022-08-11T07:18:22;20.90;82.70
21830;DHT22;11077;50.264;6.798;2022-08-11T07:21:12;21.10;82.50
21830;DHT22;11077;50.264;6.798;2022-08-11T07:24:00;21.30;81.20
21830;DHT22;11077;50.264;6.798;2022-08-11T07:26:50;21.50;80.80
21830;DHT22;11077;50.264;6.798;2022-08-11T07:29:36;21.70;80.00
21830;DHT22;11077;50.264;6.798;2022-08-11T07:32:14;21.90;80.00
21830;DHT22;11077;50.264;6.798;2022-08-11T07:34:47;22.10;79.60
21830;DHT22;11077;50.264;6.798;2022-08-11T07:37:20;22.30;79.10
21830;DHT22;11077;50.264;6.798;2022-08-11T07:39:49;22.40;78.30
21830;DHT22;11077;50.264;6.798;2022-08-11T07:42:21;22.60;77.90
21830;DHT22;11077;50.264;6.798;2022-08-11T07:44:50;22.70;77.00
21830;DHT22;11077;50.264;6.798;2022-08-11T07:47:36;22.80;76.70
21830;DHT22;11077;50.264;6.798;2022-08-11T07:50:23;23.00;76.60
21830;DHT22;11077;50.264;6.798;2022-08-11T07:53:10;23.10;75.90
21830;DHT22;11077;50.264;6.798;2022-08-11T07:55:39;23.30;75.10
21830;DHT22;11077;50.264;6.798;2022-08-11T07:58:07;23.50;75.10
21830;DHT22;11077;50.264;6.798;2022-08-11T08:00:53;23.60;74.60
21830;DHT22;11077;50.264;6.798;2022-08-11T08:03:39;23.80;73.70
21830;DHT22;11077;50.264;6.798;2022-08-11T08:06:26;23.90;73.30
21830;DHT22;11077;50.264;6.798;2022-08-11T08:09:12;24.10;72.90
21830;DHT22;11077;50.264;6.798;2022-08-11T08:12:01;24.30;72.10
21830;DHT22;11077;50.264;6.798;2022-08-11T08:14:47;24.50;71.20
21830;DHT22;11077;50.264;6.798;2022-08-11T08:17:32;24.60;70.70
21830;DHT22;11077;50.264;6.798;2022-08-11T08:20:24;24.70;69.40
21830;DHT22;11077;50.264;6.798;2022-08-11T08:22:53;25.00;69.00
21830;DHT22;11077;50.264;6.798;2022-08-11T08:25:29;25.00;68.00
21830;DHT22;11077;50.264;6.798;2022-08-11T08:27:58;25.10;68.60
21830;DHT22;11077;50.264;6.798;2022-08-11T08:30:26;25.30;68.30
21830;DHT22;11077;50.264;6.798;2022-08-11T08:33:12;25.40;67.40
21830;DHT22;11077;50.264;6.798;2022-08-11T08:35:41;25.50;65.60
21830;DHT22;11077;50.264;6.798;2022-08-11T08:38:10;25.60;66.30
21830;DHT22;11077;50.264;6.798;2022-08-11T08:40:41;25.70;66.20
21830;DHT22;11077;50.264;6.798;2022-08-11T08:43:13;25.80;67.30
21830;DHT22;11077;50.264;6.798;2022-08-11T08:45:42;26.00;66.10
21830;DHT22;11077;50.264;6.798;2022-08-11T08:48:12;26.00;66.20
21830;DHT22;11077;50.264;6.798;2022-08-11T08:50:44;26.10;66.30
21830;DHT22;11077;50.264;6.798;2022-08-11T08:53:34;26.20;65.00
21830;DHT22;11077;50.264;6.798;2022-08-11T08:56:03;26.30;64.60
21830;DHT22;11077;50.264;6.798;2022-08-11T08:58:34;26.50;64.60
21830;DHT22;11077;50.264;6.798;2022-08-11T09:01:03;26.70;64.40
21830;DHT22;11077;50.264;6.798;2022-08-11T09:03:35;26.80;64.80
21830;DHT22;11077;50.264;6.798;2022-08-11T09:06:03;27.00;64.50
21830;DHT22;11077;50.264;6.798;2022-08-11T09:08:31;27.20;64.30
21830;DHT22;11077;50.264;6.798;2022-08-11T09:11:03;27.30;63.50
21830;DHT22;11077;50.264;6.798;2022-08-11T09:13:48;27.50;63.00
21830;DHT22;11077;50.264;6.798;2022-08-11T09:16:17;27.50;61.60
21830;DHT22;11077;50.264;6.798;2022-08-11T09:18:45;27.60;62.50
21830;DHT22;11077;50.264;6.798;2022-08-11T09:21:13;27.70;62.10
21830;DHT22;11077;50.264;6.798;2022-08-11T09:23:42;27.80;61.50
21830;DHT22;11077;50.264;6.798;2022-08-11T09:26:29;27.90;60.80
21830;DHT22;11077;50.264;6.798;2022-08-11T09:29:14;28.10;61.20
21830;DHT22;11077;50.264;6.798;2022-08-11T09:31:41;28.20;59.70
21830;DHT22;11077;50.264;6.798;2022-08-11T09:34:09;28.30;59.30
21830;DHT22;11077;50.264;6.798;2022-08-11T09:36:39;28.30;59.30
21830;DHT22;11077;50.264;6.798;2022-08-11T09:39:25;28.50;59.50
21830;DHT22;11077;50.264;6.798;2022-08-11T09:42:13;28.50;59.80
21830;DHT22;11077;50.264;6.798;2022-08-11T09:44:41;28.60;59.50
21830;DHT22;11077;50.264;6.798;2022-08-11T09:47:21;28.70;59.50
21830;DHT22;11077;50.264;6.798;2022-08-11T09:49:50;28.70;59.10
21830;DHT22;11077;50.264;6.798;2022-08-11T09:52:18;28.70;58.90
21830;DHT22;11077;50.264;6.798;2022-08-11T09:54:48;28.80;58.50
21830;DHT22;11077;50.264;6.798;2022-08-11T09:57:19;28.90;57.90
21830;DHT22;11077;50.264;6.798;2022-08-11T10:00:07;29.00;56.80
21830;DHT22;11077;50.264;6.798;2022-08-11T10:02:41;29.00;56.70
21830;DHT22;11077;50.264;6.798;2022-08-11T10:05:09;29.00;56.00
21830;DHT22;11077;50.264;6.798;2022-08-11T10:07:55;29.00;56.70
21830;DHT22;11077;50.264;6.798;2022-08-11T10:10:23;28.90;57.50
21830;DHT22;11077;50.264;6.798;2022-08-11T10:12:57;29.10;58.00
21830;DHT22;11077;50.264;6.798;2022-08-11T10:15:27;29.20;56.60
21830;DHT22;11077;50.264;6.798;2022-08-11T10:18:07;29.30;56.70
21830;DHT22;11077;50.264;6.798;2022-08-11T10:20:54;29.30;56.20
21830;DHT22;11077;50.264;6.798;2022-08-11T10:23:23;29.40;56.10
21830;DHT22;11077;50.264;6.798;2022-08-11T10:26:08;29.50;55.90
21830;DHT22;11077;50.264;6.798;2022-08-11T10:28:55;29.60;56.60
21830;DHT22;11077;50.264;6.798;2022-08-11T10:31:24;29.80;56.10
21830;DHT22;11077;50.264;6.798;2022-08-11T10:34:09;29.90;55.40
21830;DHT22;11077;50.264;6.798;2022-08-11T10:36:39;30.00;55.50
21830;DHT22;11077;50.264;6.798;2022-08-11T10:39:13;30.10;55.00
21830;DHT22;11077;50.264;6.798;2022-08-11T10:41:43;30.20;55.50
21830;DHT22;11077;50.264;6.798;2022-08-11T10:44:31;30.20;55.20
21830;DHT22;11077;50.264;6.798;2022-08-11T10:47:03;30.20;55.30
21830;DHT22;11077;50.264;6.798;2022-08-11T10:49:49;30.40;54.90
21830;DHT22;11077;50.264;6.798;2022-08-11T10:52:39;30.50;55.30
21830;DHT22;11077;50.264;6.798;2022-08-11T10:55:24;30.60;55.40
21830;DHT22;11077;50.264;6.798;2022-08-11T10:58:10;30.80;54.40
21830;DHT22;11077;50.264;6.798;2022-08-11T11:00:57;31.00;54.30
21830;DHT22;11077;50.264;6.798;2022-08-11T11:03:27;31.00;53.80
21830;DHT22;11077;50.264;6.798;2022-08-11T11:06:02;31.00;53.50
21830;DHT22;11077;50.264;6.798;2022-08-11T11:08:34;31.10;53.10
21830;DHT22;11077;50.264;6.798;2022-08-11T11:11:22;31.10;53.10
21830;DHT22;11077;50.264;6.798;2022-08-11T11:14:13;31.20;52.60
21830;DHT22;11077;50.264;6.798;2022-08-11T11:17:01;31.20;53.50
21830;DHT22;11077;50.264;6.798;2022-08-11T11:19:46;31.40;53.70
21830;DHT22;11077;50.264;6.798;2022-08-11T11:22:16;31.70;53.40
21830;DHT22;11077;50.264;6.798;2022-08-11T11:25:11;31.60;53.90
21830;DHT22;11077;50.264;6.798;2022-08-11T11:28:04;31.80;53.20
21830;DHT22;11077;50.264;6.798;2022-08-11T11:30:42;31.90;52.40
21830;DHT22;11077;50.264;6.798;2022-08-11T11:33:22;32.00;53.20
21830;DHT22;11077;50.264;6.798;2022-08-11T11:36:02;32.10;52.20
21830;DHT22;11077;50.264;6.798;2022-08-11T11:38:35;32.10;52.20
21830;DHT22;11077;50.264;6.798;2022-08-11T11:41:02;32.10;51.90
21830;DHT22;11077;50.264;6.798;2022-08-11T11:43:47;32.00;52.10
21830;DHT22;11077;50.264;6.798;2022-08-11T11:46:16;32.10;52.10
21830;DHT22;11077;50.264;6.798;2022-08-11T11:52:06;32.30;51.50
21830;DHT22;11077;50.264;6.798;2022-08-11T11:55:11;32.30;50.90
21830;DHT22;11077;50.264;6.798;2022-08-11T11:58:14;32.30;50.90
21830;DHT22;11077;50.264;6.798;2022-08-11T12:01:06;32.20;51.30
21830;DHT22;11077;50.264;6.798;2022-08-11T12:04:11;32.20;51.50
21830;DHT22;11077;50.264;6.798;2022-08-11T12:06:49;32.20;51.80
21830;DHT22;11077;50.264;6.798;2022-08-11T12:10:00;32.30;51.60
21830;DHT22;11077;50.264;6.798;2022-08-11T12:12:35;32.50;51.80
21830;DHT22;11077;50.264;6.798;2022-08-11T12:16:52;32.60;51.10
21830;DHT22;11077;50.264;6.798;2022-08-11T12:18:46;32.50;51.10
21830;DHT22;11077;50.264;6.798;2022-08-11T12:22:09;32.50;51.10
21830;DHT22;11077;50.264;6.798;2022-08-11T12:24:54;32.40;51.00
21830;DHT22;11077;50.264;6.798;2022-08-11T12:31:03;32.30;52.50
21830;DHT22;11077;50.264;6.798;2022-08-11T12:33:30;32.40;52.00
21830;DHT22;11077;50.264;6.798;2022-08-11T12:35:59;32.50;52.40
21830;DHT22;11077;50.264;6.798;2022-08-11T12:38:26;32.60;52.20
21830;DHT22;11077;50.264;6.798;2022-08-11T12:40:54;32.70;52.30
21830;DHT22;11077;50.264;6.798;2022-08-11T12:43:44;32.60;52.40
21830;DHT22;11077;50.264;6.798;2022-08-11T12:46:31;32.70;51.50
21830;DHT22;11077;50.264;6.798;2022-08-11T12:49:03;32.60;51.60
21830;DHT22;11077;50.264;6.798;2022-08-11T12:51:52;32.40;52.30
21830;DHT22;11077;50.264;6.798;2022-08-11T12:54:27;32.50;52.00
21830;DHT22;11077;50.264;6.798;2022-08-11T12:56:59;32.30;51.40
21830;DHT22;11077;50.264;6.798;2022-08-11T12:59:46;32.20;51.80
21830;DHT22;11077;50.264;6.798;2022-08-11T13:02:32;31.80;52.30
21830;DHT22;11077;50.264;6.798;2022-08-11T13:05:18;31.70;53.30
21830;DHT22;11077;50.264;6.798;2022-08-11T13:07:46;31.60;52.90
21830;DHT22;11077;50.264;6.798;2022-08-11T13:10:16;31.40;52.80
21830;DHT22;11077;50.264;6.798;2022-08-11T13:13:06;31.40;53.60
21830;DHT22;11077;50.264;6.798;2022-08-11T13:15:35;31.30;53.20
21830;DHT22;11077;50.264;6.798;2022-08-11T13:18:03;31.10;52.90
21830;DHT22;11077;50.264;6.798;2022-08-11T13:20:34;30.70;53.60
21830;DHT22;11077;50.264;6.798;2022-08-11T13:23:02;30.60;53.10
21830;DHT22;11077;50.264;6.798;2022-08-11T13:25:31;30.50;53.50
21830;DHT22;11077;50.264;6.798;2022-08-11T13:27:59;30.40;53.40
21830;DHT22;11077;50.264;6.798;2022-08-11T13:30:29;30.30;53.40
21830;DHT22;11077;50.264;6.798;2022-08-11T13:33:17;30.10;53.50
21830;DHT22;11077;50.264;6.798;2022-08-11T13:35:45;30.00;54.60
21830;DHT22;11077;50.264;6.798;2022-08-11T13:38:15;30.00;54.40
21830;DHT22;11077;50.264;6.798;2022-08-11T13:40:43;29.90;54.40
21830;DHT22;11077;50.264;6.798;2022-08-11T13:43:12;29.80;54.90
21830;DHT22;11077;50.264;6.798;2022-08-11T13:45:41;29.80;54.90
21830;DHT22;11077;50.264;6.798;2022-08-11T13:48:11;29.80;54.40
21830;DHT22;11077;50.264;6.798;2022-08-11T13:50:41;29.70;54.40
21830;DHT22;11077;50.264;6.798;2022-08-11T13:53:28;29.50;54.20
21830;DHT22;11077;50.264;6.798;2022-08-11T13:55:57;29.40;54.30
21830;DHT22;11077;50.264;6.798;2022-08-11T13:58:25;29.30;54.40
21830;DHT22;11077;50.264;6.798;2022-08-11T14:00:53;29.40;54.60
21830;DHT22;11077;50.264;6.798;2022-08-11T14:03:26;29.30;54.90
21830;DHT22;11077;50.264;6.798;2022-08-11T14:05:57;29.20;55.10
21830;DHT22;11077;50.264;6.798;2022-08-11T14:08:30;29.00;54.90
21830;DHT22;11077;50.264;6.798;2022-08-11T14:11:01;29.00;54.50
21830;DHT22;11077;50.264;6.798;2022-08-11T14:13:49;28.90;55.10
21830;DHT22;11077;50.264;6.798;2022-08-11T14:16:19;29.00;55.00
21830;DHT22;11077;50.264;6.798;2022-08-11T14:18:51;29.00;55.20
21830;DHT22;11077;50.264;6.798;2022-08-11T14:21:23;29.00;54.40
21830;DHT22;11077;50.264;6.798;2022-08-11T14:24:08;29.10;54.40
21830;DHT22;11077;50.264;6.798;2022-08-11T14:26:38;29.00;54.40
21830;DHT22;11077;50.264;6.798;2022-08-11T14:29:10;29.10;54.40
21830;DHT22;11077;50.264;6.798;2022-08-11T14:31:43;29.00;53.70
21830;DHT22;11077;50.264;6.798;2022-08-11T14:34:12;29.00;53.60
21830;DHT22;11077;50.264;6.798;2022-08-11T14:36:43;29.00;53.50
21830;DHT22;11077;50.264;6.798;2022-08-11T14:39:12;29.00;54.30
21830;DHT22;11077;50.264;6.798;2022-08-11T14:41:44;28.90;54.10
21830;DHT22;11077;50.264;6.798;2022-08-11T14:44:30;28.90;54.10
21830;DHT22;11077;50.264;6.798;2022-08-11T14:47:17;28.80;54.20
21830;DHT22;11077;50.264;6.798;2022-08-11T14:49:45;28.90;53.80
21830;DHT22;11077;50.264;6.798;2022-08-11T14:52:16;28.80;53.60
21830;DHT22;11077;50.264;6.798;2022-08-11T14:54:47;28.80;54.20
21830;DHT22;11077;50.264;6.798;2022-08-11T14:57:35;28.80;54.40
21830;DHT22;11077;50.264;6.798;2022-08-11T15:00:05;28.80;54.80
21830;DHT22;11077;50.264;6.798;2022-08-11T15:02:33;28.80;55.40
21830;DHT22;11077;50.264;6.798;2022-08-11T15:05:20;28.70;55.00
21830;DHT22;11077;50.264;6.798;2022-08-11T15:07:50;28.70;55.40
21830;DHT22;11077;50.264;6.798;2022-08-11T15:10:18;28.70;55.50
21830;DHT22;11077;50.264;6.798;2022-08-11T15:12:47;28.80;55.20
21830;DHT22;11077;50.264;6.798;2022-08-11T15:15:16;28.90;55.00
21830;DHT22;11077;50.264;6.798;2022-08-11T15:18:02;28.90;55.20
21830;DHT22;11077;50.264;6.798;2022-08-11T15:20:31;29.00;55.20
21830;DHT22;11077;50.264;6.798;2022-08-11T15:23:17;29.10;55.10
21830;DHT22;11077;50.264;6.798;2022-08-11T15:26:06;29.10;55.20
21830;DHT22;11077;50.264;6.798;2022-08-11T15:28:38;29.20;55.50
21830;DHT22;11077;50.264;6.798;2022-08-11T15:31:25;29.30;55.70
21830;DHT22;11077;50.264;6.798;2022-08-11T15:34:14;29.40;55.10
21830;DHT22;11077;50.264;6.798;2022-08-11T15:37:05;29.50;55.30
21830;DHT22;11077;50.264;6.798;2022-08-11T15:39:55;29.60;55.10
21830;DHT22;11077;50.264;6.798;2022-08-11T15:42:48;29.60;54.90
21830;DHT22;11077;50.264;6.798;2022-08-11T15:45:37;29.70;54.90
21830;DHT22;11077;50.264;6.798;2022-08-11T15:48:26;29.80;54.90
21830;DHT22;11077;50.264;6.798;2022-08-11T15:50:56;29.80;54.90
21830;DHT22;11077;50.264;6.798;2022-08-11T15:53:31;29.80;54.30
21830;DHT22;11077;50.264;6.798;2022-08-11T15:56:01;29.80;54.90
21830;DHT22;11077;50.264;6.798;2022-08-11T15:58:31;29.90;54.90
21830;DHT22;11077;50.264;6.798;2022-08-11T16:01:19;29.90;54.70
21830;DHT22;11077;50.264;6.798;2022-08-11T16:04:08;30.00;54.70
21830;DHT22;11077;50.264;6.798;2022-08-11T16:06:48;30.10;54.30
21830;DHT22;11077;50.264;6.798;2022-08-11T16:09:20;30.00;54.20
21830;DHT22;11077;50.264;6.798;2022-08-11T16:11:50;30.00;54.00
21830;DHT22;11077;50.264;6.798;2022-08-11T16:14:19;29.90;53.80
21830;DHT22;11077;50.264;6.798;2022-08-11T16:17:07;29.90;54.10
21830;DHT22;11077;50.264;6.798;2022-08-11T16:19:36;29.80;54.30
21830;DHT22;11077;50.264;6.798;2022-08-11T16:22:08;29.80;54.60
21830;DHT22;11077;50.264;6.798;2022-08-11T16:24:38;29.80;54.90
21830;DHT22;11077;50.264;6.798;2022-08-11T16:27:12;29.80;54.90
21830;DHT22;11077;50.264;6.798;2022-08-11T16:29:44;29.90;55.00
21830;DHT22;11077;50.264;6.798;2022-08-11T16:32:15;29.90;54.90
21830;DHT22;11077;50.264;6.798;2022-08-11T16:34:44;29.90;54.90
21830;DHT22;11077;50.264;6.798;2022-08-11T16:37:30;29.90;54.90
21830;DHT22;11077;50.264;6.798;2022-08-11T16:40:32;29.90;54.80
21830;DHT22;11077;50.264;6.798;2022-08-11T16:43:04;29.90;54.90
21830;DHT22;11077;50.264;6.798;2022-08-11T16:45:49;29.80;54.90
21830;DHT22;11077;50.264;6.798;2022-08-11T16:48:36;29.80;54.90
21830;DHT22;11077;50.264;6.798;2022-08-11T16:51:05;29.90;54.60
21830;DHT22;11077;50.264;6.798;2022-08-11T16:53:32;29.90;54.40
21830;DHT22;11077;50.264;6.798;2022-08-11T16:56:03;29.80;54.70
21830;DHT22;11077;50.264;6.798;2022-08-11T16:58:34;29.70;54.80
21830;DHT22;11077;50.264;6.798;2022-08-11T17:01:22;29.70;54.80
21830;DHT22;11077;50.264;6.798;2022-08-11T17:03:55;29.70;54.80
21830;DHT22;11077;50.264;6.798;2022-08-11T17:06:43;29.60;54.40
21830;DHT22;11077;50.264;6.798;2022-08-11T17:09:31;29.50;54.70
21830;DHT22;11077;50.264;6.798;2022-08-11T17:12:20;29.40;54.60
21830;DHT22;11077;50.264;6.798;2022-08-11T17:15:11;29.30;55.10
21830;DHT22;11077;50.264;6.798;2022-08-11T17:17:56;29.30;54.80
21830;DHT22;11077;50.264;6.798;2022-08-11T17:20:25;29.30;55.20
21830;DHT22;11077;50.264;6.798;2022-08-11T17:22:53;29.20;55.50
21830;DHT22;11077;50.264;6.798;2022-08-11T17:25:50;29.20;55.50
21830;DHT22;11077;50.264;6.798;2022-08-11T17:28:19;29.00;55.30
21830;DHT22;11077;50.264;6.798;2022-08-11T17:30:50;29.00;55.30
21830;DHT22;11077;50.264;6.798;2022-08-11T17:33:36;28.90;55.50
21830;DHT22;11077;50.264;6.798;2022-08-11T17:36:21;28.80;55.70
21830;DHT22;11077;50.264;6.798;2022-08-11T17:38:50;28.80;55.30
21830;DHT22;11077;50.264;6.798;2022-08-11T17:41:18;28.80;55.30
21830;DHT22;11077;50.264;6.798;2022-08-11T17:44:04;28.80;54.90
21830;DHT22;11077;50.264;6.798;2022-08-11T17:46:56;28.70;54.90